createdAt,value
2019-03-05T00:04:00.629Z,5.40
2019-03-05T00:06:54.191Z,5.30
2019-03-05T00:09:38.921Z,5.10
2019-03-05T00:12:23.345Z,5.30
2019-03-05T00:15:08.568Z,5.20
2019-03-05T00:17:53.075Z,5.10
2019-03-05T00:20:38.092Z,5.00
2019-03-05T00:23:22.432Z,4.90
2019-03-05T00:26:07.320Z,4.90
2019-03-05T00:28:51.992Z,4.90
2019-03-05T00:31:36.949Z,4.90
2019-03-05T00:34:21.047Z,4.90
2019-03-05T00:37:14.895Z,4.80
2019-03-05T00:39:59.439Z,4.80
2019-03-05T00:42:44.431Z,4.70
2019-03-05T00:45:28.940Z,4.70
2019-03-05T00:48:13.685Z,4.50
2019-03-05T00:50:58.116Z,4.50
2019-03-05T00:53:42.700Z,4.50
2019-03-05T00:56:28.188Z,4.60
2019-03-05T00:59:13.016Z,4.60
2019-03-05T01:01:57.841Z,4.70
2019-03-05T01:04:42.506Z,4.80
2019-03-05T01:07:27.175Z,4.80
2019-03-05T01:10:11.991Z,4.90
2019-03-05T01:12:56.311Z,5.00
2019-03-05T01:15:49.197Z,5.10
2019-03-05T01:18:33.899Z,5.30
2019-03-05T01:21:18.409Z,5.50
2019-03-05T01:24:11.808Z,5.60
2019-03-05T01:26:56.206Z,5.70
2019-03-05T01:29:41.368Z,5.70
2019-03-05T01:32:43.060Z,5.60
2019-03-05T01:42:46.524Z,5.10
2019-03-05T01:45:31.522Z,5.30
2019-03-05T01:48:15.975Z,5.30
2019-03-05T01:51:01.175Z,5.10
2019-03-05T01:53:45.959Z,5.00
2019-03-05T01:56:31.356Z,5.00
2019-03-05T01:59:25.660Z,5.00
2019-03-05T02:02:19.584Z,4.90
2019-03-05T02:05:04.325Z,4.90
2019-03-05T02:07:58.372Z,4.90
2019-03-05T02:10:43.152Z,4.90
2019-03-05T02:13:27.717Z,4.90
2019-03-05T02:16:12.332Z,5.00
2019-03-05T02:18:57.155Z,5.00
2019-03-05T02:21:41.399Z,5.00
2019-03-05T02:24:34.608Z,5.10
2019-03-05T02:27:47.071Z,5.20
2019-03-05T02:30:40.868Z,5.20
2019-03-05T02:33:25.499Z,5.40
2019-03-05T02:36:10.036Z,5.40
2019-03-05T02:38:55.049Z,5.30
2019-03-05T02:41:39.673Z,5.30
2019-03-05T02:44:24.563Z,5.20
2019-03-05T02:47:09.747Z,5.30
2019-03-05T02:49:55.107Z,5.30
2019-03-05T02:52:48.348Z,5.30
2019-03-05T02:55:33.167Z,5.20
2019-03-05T02:58:18.079Z,5.10
2019-03-05T03:01:21.786Z,5.10
2019-03-05T03:04:10.572Z,5.10
2019-03-05T03:07:15.642Z,5.10
2019-03-05T03:10:00.335Z,5.10
2019-03-05T03:12:45.211Z,5.10
2019-03-05T03:15:30.330Z,5.10
2019-03-05T03:18:15.340Z,5.10
2019-03-05T03:21:09.251Z,5.10
2019-03-05T03:23:54.163Z,5.00
2019-03-05T03:26:48.299Z,5.10
2019-03-05T03:29:42.349Z,5.40
2019-03-05T03:32:36.285Z,5.50
2019-03-05T03:35:21.145Z,5.60
2019-03-05T03:38:14.571Z,5.60
2019-03-05T03:40:59.160Z,5.60
2019-03-05T03:43:43.868Z,5.60
2019-03-05T03:46:28.510Z,5.50
2019-03-05T03:49:22.160Z,5.70
2019-03-05T03:52:06.823Z,5.50
2019-03-05T03:54:51.142Z,5.60
2019-03-05T03:57:35.456Z,5.60
2019-03-05T04:00:28.817Z,5.50
2019-03-05T04:03:13.554Z,5.60
2019-03-05T04:05:58.715Z,5.70
2019-03-05T04:08:43.045Z,5.50
2019-03-05T04:11:27.914Z,5.50
2019-03-05T04:14:12.275Z,5.60
2019-03-05T04:16:56.779Z,5.50
2019-03-05T04:19:50.297Z,5.50
2019-03-05T04:22:34.917Z,5.60
2019-03-05T04:25:21.172Z,5.60
2019-03-05T04:28:06.018Z,5.30
2019-03-05T04:30:50.726Z,5.20
2019-03-05T04:33:35.643Z,5.10
2019-03-05T04:36:20.359Z,5.20
2019-03-05T04:39:05.627Z,5.30
2019-03-05T04:41:59.576Z,5.30
2019-03-05T04:48:27.458Z,5.30
2019-03-05T04:54:27.132Z,5.20
2019-03-05T04:57:11.721Z,5.30
2019-03-05T04:59:56.576Z,5.20
2019-03-05T05:02:41.015Z,5.10
2019-03-05T05:05:25.516Z,4.90
2019-03-05T05:08:18.669Z,4.80
2019-03-05T05:11:03.585Z,4.70
2019-03-05T05:13:47.862Z,4.60
2019-03-05T05:16:32.684Z,4.60
2019-03-05T05:19:17.659Z,4.60
2019-03-05T05:22:00.813Z,4.60
2019-03-05T05:24:52.777Z,4.60
2019-03-05T05:27:38.108Z,4.50
2019-03-05T05:30:31.772Z,4.60
2019-03-05T05:33:16.727Z,4.60
2019-03-05T05:36:10.459Z,4.70
2019-03-05T05:38:56.592Z,4.70
2019-03-05T05:41:41.228Z,4.80
2019-03-05T05:44:26.368Z,4.80
2019-03-05T05:47:11.059Z,4.70
2019-03-05T05:49:55.703Z,4.70
2019-03-05T05:52:40.532Z,4.80
2019-03-05T05:55:25.311Z,4.80
2019-03-05T05:58:09.909Z,5.00
2019-03-05T06:00:56.947Z,5.20
2019-03-05T06:03:41.549Z,5.20
2019-03-05T06:06:26.096Z,5.30
2019-03-05T06:09:10.572Z,5.20
2019-03-05T06:11:55.464Z,5.20
2019-03-05T06:14:40.551Z,5.00
2019-03-05T06:17:25.624Z,5.00
2019-03-05T06:20:10.499Z,5.00
2019-03-05T06:22:55.348Z,5.00
2019-03-05T06:25:40.433Z,5.10
2019-03-05T06:28:34.521Z,5.30
2019-03-05T06:31:18.635Z,5.30
2019-03-05T06:34:03.320Z,5.40
2019-03-05T06:36:47.864Z,5.60
2019-03-05T06:39:31.348Z,5.60
2019-03-05T06:42:23.307Z,5.80
2019-03-05T06:45:08.089Z,5.90
2019-03-05T06:47:53.291Z,6.00
2019-03-05T06:50:46.739Z,6.00
2019-03-05T06:53:31.739Z,6.10
2019-03-05T06:56:16.776Z,6.20
2019-03-05T06:59:10.630Z,6.30
2019-03-05T07:01:55.763Z,6.30
2019-03-05T07:05:08.272Z,6.40
2019-03-05T07:07:52.947Z,6.40
2019-03-05T07:10:37.496Z,6.40
2019-03-05T07:13:22.177Z,6.40
2019-03-05T07:16:15.866Z,6.50
2019-03-05T07:19:09.897Z,6.60
2019-03-05T07:21:54.459Z,6.70
2019-03-05T07:24:39.526Z,6.60
2019-03-05T07:27:24.415Z,6.70
2019-03-05T07:30:09.132Z,6.70
2019-03-05T07:32:53.492Z,6.50
2019-03-05T07:35:37.762Z,6.60
2019-03-05T07:38:22.839Z,6.70
2019-03-05T07:41:08.488Z,6.70
2019-03-05T07:44:02.653Z,6.80
2019-03-05T07:46:55.999Z,6.90
2019-03-05T07:49:44.194Z,6.90
2019-03-05T07:52:27.212Z,7.00
2019-03-05T07:55:13.807Z,7.10
2019-03-05T07:58:07.498Z,7.00
2019-03-05T08:00:52.254Z,7.10
2019-03-05T08:03:36.912Z,7.00
2019-03-05T08:06:21.666Z,6.90
2019-03-05T08:09:07.195Z,6.90
2019-03-05T08:12:01.355Z,6.90
2019-03-05T08:14:45.856Z,7.00
2019-03-05T08:17:30.839Z,7.20
2019-03-05T08:20:15.432Z,7.20
2019-03-05T08:23:00.147Z,7.50
2019-03-05T08:25:45.144Z,7.70
2019-03-05T08:28:29.735Z,7.80
2019-03-05T08:31:14.379Z,7.90
2019-03-05T08:33:59.461Z,7.90
2019-03-05T08:36:44.556Z,7.90
2019-03-05T08:39:29.308Z,7.90
2019-03-05T08:42:14.303Z,8.00
2019-03-05T08:45:08.644Z,8.20
2019-03-05T08:48:02.316Z,8.30
2019-03-05T08:50:47.225Z,8.40
2019-03-05T08:53:31.816Z,8.60
2019-03-05T08:56:16.795Z,8.70
2019-03-05T08:59:01.702Z,8.80
2019-03-05T09:01:55.836Z,9.00
2019-03-05T09:04:40.523Z,9.10
2019-03-05T09:07:34.438Z,9.30
2019-03-05T09:10:19.646Z,9.40
2019-03-05T09:13:13.464Z,9.60
2019-03-05T09:15:58.720Z,9.80
2019-03-05T09:18:52.399Z,9.70
2019-03-05T09:21:37.420Z,9.60
2019-03-05T09:24:22.168Z,9.70
2019-03-05T09:27:16.253Z,9.80
2019-03-05T09:30:01.542Z,10.10
2019-03-05T09:32:57.852Z,10.30
2019-03-05T09:35:42.836Z,10.30
2019-03-05T09:38:27.480Z,10.40
2019-03-05T09:41:12.771Z,10.50
2019-03-05T09:43:57.503Z,10.60
2019-03-05T09:46:42.147Z,10.50
2019-03-05T09:49:29.760Z,10.60
2019-03-05T09:52:14.296Z,10.80
2019-03-05T09:54:59.292Z,10.80
2019-03-05T09:57:43.956Z,11.00
2019-03-05T10:00:29.173Z,11.30
2019-03-05T10:03:14.310Z,11.50
2019-03-05T10:06:00.722Z,11.70
2019-03-05T10:08:47.148Z,11.50
2019-03-05T10:11:31.848Z,11.60
2019-03-05T10:14:17.020Z,11.80
2019-03-05T10:17:10.655Z,12.10
2019-03-05T10:19:55.468Z,11.90
2019-03-05T10:22:40.480Z,11.70
2019-03-05T10:25:25.424Z,11.90
2019-03-05T10:28:10.574Z,12.30
2019-03-05T10:31:04.056Z,12.40
2019-03-05T10:33:48.359Z,12.40
2019-03-05T10:36:33.120Z,12.40
2019-03-05T10:39:29.653Z,12.20
2019-03-05T10:42:04.557Z,12.10
2019-03-05T10:44:49.535Z,12.00
2019-03-05T10:47:34.407Z,11.90
2019-03-05T10:50:19.496Z,11.90
2019-03-05T10:53:04.168Z,12.00
2019-03-05T10:55:49.560Z,12.10
2019-03-05T10:58:42.868Z,12.40
2019-03-05T11:01:28.019Z,12.70
2019-03-05T11:04:13.117Z,13.00
2019-03-05T11:07:06.972Z,12.80
2019-03-05T11:09:51.459Z,12.80
2019-03-05T11:12:36.044Z,13.30
2019-03-05T11:15:20.654Z,13.40
2019-03-05T11:18:05.261Z,13.30
2019-03-05T11:20:50.347Z,12.90
2019-03-05T11:23:45.172Z,12.70
2019-03-05T11:26:30.017Z,12.50
2019-03-05T11:29:15.048Z,12.40
2019-03-05T11:32:08.511Z,12.40
2019-03-05T11:34:53.335Z,12.30
2019-03-05T11:37:38.361Z,12.30
2019-03-05T11:40:23.180Z,12.20
2019-03-05T11:43:08.054Z,12.20
2019-03-05T11:45:52.760Z,12.00
2019-03-05T11:48:37.035Z,12.00
2019-03-05T11:51:22.059Z,11.90
2019-03-05T11:54:07.324Z,12.00
2019-03-05T11:56:51.861Z,12.00
2019-03-05T11:59:36.616Z,11.80
2019-03-05T12:02:22.029Z,11.70
2019-03-05T12:05:15.553Z,11.60
2019-03-05T12:08:00.744Z,11.60
2019-03-05T12:10:45.668Z,11.60
2019-03-05T12:13:39.412Z,11.50
2019-03-05T12:16:24.396Z,11.30
2019-03-05T12:19:09.571Z,11.20
2019-03-05T12:22:03.191Z,11.20
2019-03-05T12:24:47.721Z,11.20
2019-03-05T12:27:32.191Z,11.30
2019-03-05T12:30:16.505Z,11.30
2019-03-05T12:33:12.744Z,11.30
2019-03-05T12:35:57.604Z,11.20
2019-03-05T12:38:42.608Z,11.20
2019-03-05T12:41:28.396Z,11.10
2019-03-05T12:44:15.008Z,11.00
2019-03-05T12:46:58.199Z,11.00
2019-03-05T12:49:53.499Z,10.90
2019-03-05T12:52:47.372Z,10.70
2019-03-05T12:55:41.496Z,10.70
2019-03-05T12:58:24.824Z,10.60
2019-03-05T13:01:18.740Z,10.50
2019-03-05T13:04:03.235Z,10.70
2019-03-05T13:06:48.184Z,10.60
2019-03-05T13:09:32.893Z,10.60
2019-03-05T13:12:17.499Z,10.60
2019-03-05T13:15:02.703Z,10.60
2019-03-05T13:17:51.479Z,10.60
2019-03-05T13:20:35.618Z,10.50
2019-03-05T13:23:29.808Z,10.50
2019-03-05T13:26:24.172Z,10.30
2019-03-05T13:29:19.303Z,10.00
2019-03-05T13:32:03.963Z,10.00
2019-03-05T13:34:48.933Z,10.00
2019-03-05T13:37:34.012Z,10.10
2019-03-05T13:40:18.331Z,10.20
2019-03-05T13:43:02.891Z,10.10
2019-03-05T13:45:50.265Z,10.00
2019-03-05T13:48:34.571Z,9.90
2019-03-05T13:51:19.521Z,9.70
2019-03-05T13:54:09.543Z,9.60
2019-03-05T13:56:52.988Z,9.40
2019-03-05T13:59:46.792Z,9.30
2019-03-05T14:02:40.547Z,9.30
2019-03-05T14:05:25.634Z,9.30
2019-03-05T14:08:19.165Z,9.30
2019-03-05T14:11:05.865Z,9.40
2019-03-05T14:13:51.057Z,9.30
2019-03-05T14:16:45.136Z,9.20
2019-03-05T14:19:43.003Z,9.10
2019-03-05T14:22:36.480Z,9.10
2019-03-05T14:25:21.287Z,9.10
2019-03-05T14:28:06.453Z,9.00
2019-03-05T14:30:51.046Z,8.90
2019-03-05T14:33:36.513Z,9.00
2019-03-05T14:36:30.336Z,8.90
2019-03-05T14:39:18.284Z,8.90
2019-03-05T14:42:03.714Z,8.90
2019-03-05T14:44:48.832Z,8.90
2019-03-05T14:47:33.788Z,9.00
2019-03-05T14:50:18.466Z,9.00
2019-03-05T14:53:03.774Z,9.00
2019-03-05T14:55:48.624Z,8.80
2019-03-05T14:58:33.681Z,8.70
2019-03-05T15:01:27.716Z,8.80
2019-03-05T15:04:13.529Z,8.90
2019-03-05T15:06:58.004Z,9.00
2019-03-05T15:09:42.930Z,9.10
2019-03-05T15:12:27.706Z,9.10
2019-03-05T15:15:12.438Z,9.10
2019-03-05T15:17:58.185Z,9.10
2019-03-05T15:20:42.837Z,9.00
2019-03-05T15:23:27.641Z,9.00
2019-03-05T15:26:12.601Z,9.10
2019-03-05T15:29:07.388Z,9.10
2019-03-05T15:32:01.170Z,9.00
2019-03-05T15:34:56.355Z,8.90
2019-03-05T15:37:41.446Z,9.00
2019-03-05T15:40:35.452Z,9.10
2019-03-05T15:43:20.262Z,8.90
2019-03-05T15:46:05.257Z,8.80
2019-03-05T15:48:59.674Z,8.90
2019-03-05T15:51:53.330Z,8.60
2019-03-05T15:54:38.345Z,8.60
2019-03-05T15:57:32.236Z,8.40
2019-03-05T16:00:17.431Z,8.00
2019-03-05T16:03:12.116Z,8.10
2019-03-05T16:05:57.726Z,7.80
2019-03-05T16:08:52.596Z,7.90
2019-03-05T16:11:37.512Z,8.00
2019-03-05T16:14:32.952Z,7.90
2019-03-05T16:17:18.717Z,8.00
2019-03-05T16:20:03.988Z,8.10
2019-03-05T16:22:51.095Z,8.20
2019-03-05T16:25:35.272Z,8.00
2019-03-05T16:28:18.448Z,7.80
2019-03-05T16:35:07.336Z,7.20
2019-03-05T16:38:29.252Z,7.00
2019-03-05T16:41:32.714Z,7.00
2019-03-05T16:44:36.519Z,6.90
2019-03-05T16:47:57.456Z,6.90
2019-03-05T16:51:01.401Z,6.80
2019-03-05T16:54:32.607Z,7.10
2019-03-05T16:57:53.787Z,7.50
2019-03-05T17:01:17.344Z,7.60
2019-03-05T17:04:40.303Z,7.60
2019-03-05T17:07:43.905Z,7.90
2019-03-05T17:10:48.120Z,8.00
2019-03-05T17:13:32.651Z,8.10
2019-03-05T17:16:17.793Z,8.30
2019-03-05T17:19:02.419Z,8.30
2019-03-05T17:21:47.313Z,8.30
2019-03-05T17:24:33.413Z,8.20
2019-03-05T17:27:26.987Z,7.80
2019-03-05T17:30:20.651Z,7.80
2019-03-05T17:33:06.415Z,7.80
2019-03-05T17:35:52.060Z,7.90
2019-03-05T17:38:37.329Z,7.60
2019-03-05T17:41:31.375Z,7.60
2019-03-05T17:44:25.319Z,7.70
2019-03-05T17:47:09.840Z,7.70
2019-03-05T17:49:54.988Z,7.80
2019-03-05T17:52:49.316Z,8.00
2019-03-05T17:55:43.720Z,7.90
2019-03-05T17:58:36.859Z,7.90
2019-03-05T18:01:21.956Z,8.00
2019-03-05T18:04:06.525Z,8.10
2019-03-05T18:06:51.119Z,8.10
2019-03-05T18:09:36.375Z,8.00
2019-03-05T18:12:20.864Z,7.90
2019-03-05T18:15:05.643Z,8.10
2019-03-05T18:17:52.248Z,8.00
2019-03-05T18:20:37.577Z,8.20
2019-03-05T18:23:31.477Z,8.10
2019-03-05T18:26:15.668Z,8.00
2019-03-05T18:29:00.536Z,7.80
2019-03-05T18:31:45.274Z,7.60
2019-03-05T18:34:30.420Z,7.60
2019-03-05T18:37:15.793Z,7.90
2019-03-05T18:40:09.560Z,7.70
2019-03-05T18:42:53.963Z,7.40
2019-03-05T18:45:38.760Z,7.70
2019-03-05T18:48:23.708Z,7.70
2019-03-05T18:51:09.059Z,7.50
2019-03-05T18:53:54.027Z,7.30
2019-03-05T18:56:38.387Z,7.10
2019-03-05T18:59:23.074Z,7.10
2019-03-05T19:02:07.912Z,6.90
2019-03-05T19:04:53.167Z,6.80
2019-03-05T19:07:37.863Z,7.00
2019-03-05T19:10:32.024Z,7.20
2019-03-05T19:13:17.039Z,7.40
2019-03-05T19:16:11.132Z,7.10
2019-03-05T19:18:56.136Z,6.90
2019-03-05T19:22:09.976Z,6.80
2019-03-05T19:24:55.177Z,6.70
2019-03-05T19:27:49.276Z,6.60
2019-03-05T19:30:34.232Z,6.60
2019-03-05T19:33:27.715Z,6.60
2019-03-05T19:36:12.111Z,6.60
2019-03-05T19:38:57.572Z,6.50
2019-03-05T19:41:41.873Z,6.50
2019-03-05T19:44:28.917Z,6.40
2019-03-05T19:47:13.395Z,6.20
2019-03-05T19:49:58.435Z,6.20
2019-03-05T19:52:42.970Z,6.20
2019-03-05T19:55:28.005Z,6.20
2019-03-05T19:58:13.277Z,6.20
2019-03-05T20:01:11.522Z,6.20
2019-03-05T20:03:56.040Z,6.20
2019-03-05T20:06:41.309Z,6.20
2019-03-05T20:09:25.945Z,6.30
2019-03-05T20:12:10.416Z,6.30
2019-03-05T20:14:54.791Z,6.20
2019-03-05T20:17:48.784Z,6.20
2019-03-05T20:20:42.378Z,6.20
2019-03-05T20:23:27.343Z,6.30
2019-03-05T20:26:12.037Z,6.30
2019-03-05T20:28:57.861Z,6.40
2019-03-05T20:31:42.843Z,6.40
2019-03-05T20:34:26.206Z,6.60
2019-03-05T20:37:18.464Z,6.60
2019-03-05T20:40:22.124Z,6.50
2019-03-05T20:43:16.023Z,6.50
2019-03-05T20:46:01.519Z,6.60
2019-03-05T20:48:46.471Z,6.60
2019-03-05T20:51:31.779Z,6.70
2019-03-05T20:54:17.376Z,6.80
2019-03-05T20:57:10.924Z,7.00
2019-03-05T20:59:55.630Z,7.10
2019-03-05T21:02:40.486Z,7.20
2019-03-05T21:05:25.620Z,7.20
2019-03-05T21:08:19.444Z,7.30
2019-03-05T21:11:04.668Z,7.20
2019-03-05T21:13:58.536Z,7.40
2019-03-05T21:16:43.703Z,7.60
2019-03-05T21:19:38.882Z,7.40
2019-03-05T21:22:32.980Z,7.50
2019-03-05T21:25:17.883Z,7.30
2019-03-05T21:28:20.500Z,7.20
2019-03-05T21:31:05.194Z,7.50
2019-03-05T21:33:51.920Z,7.70
2019-03-05T21:36:36.475Z,7.90
2019-03-05T21:39:20.888Z,8.00
2019-03-05T21:42:14.728Z,8.00
2019-03-05T21:45:08.708Z,7.80
2019-03-05T21:47:53.384Z,7.70
2019-03-05T21:50:36.870Z,7.70
2019-03-05T21:53:30.333Z,7.70
2019-03-05T21:56:15.340Z,7.60
2019-03-05T21:58:59.936Z,7.50
2019-03-05T22:01:44.730Z,7.30
2019-03-05T22:04:29.367Z,7.20
2019-03-05T22:07:14.443Z,7.20
2019-03-05T22:09:59.691Z,7.20
2019-03-05T22:12:44.791Z,7.20
2019-03-05T22:15:38.760Z,7.20
2019-03-05T22:18:32.424Z,7.30
2019-03-05T22:21:17.288Z,7.40
2019-03-05T22:24:01.785Z,7.40
2019-03-05T22:26:46.144Z,7.60
2019-03-05T22:29:30.639Z,7.50
2019-03-05T22:32:24.267Z,7.40
2019-03-05T22:35:09.279Z,7.40
2019-03-05T22:38:03.389Z,7.50
2019-03-05T22:40:48.139Z,7.40
2019-03-05T22:43:42.411Z,7.30
2019-03-05T22:46:36.780Z,7.30
2019-03-05T22:49:30.877Z,7.30
2019-03-05T22:52:24.648Z,7.20
2019-03-05T22:55:09.047Z,7.10
2019-03-05T22:57:54.088Z,7.10
2019-03-05T23:00:44.659Z,7.10
2019-03-05T23:03:48.348Z,7.00
2019-03-05T23:06:41.629Z,7.10
2019-03-05T23:09:27.163Z,7.00
2019-03-05T23:12:20.766Z,6.90
2019-03-05T23:15:06.400Z,6.90
2019-03-05T23:17:51.783Z,7.00
2019-03-05T23:20:36.379Z,7.10
2019-03-05T23:23:21.391Z,7.10
2019-03-05T23:26:06.449Z,7.10
2019-03-05T23:28:49.878Z,7.20
2019-03-05T23:31:42.213Z,7.10
2019-03-05T23:34:46.318Z,7.20
2019-03-05T23:37:30.907Z,7.20
2019-03-05T23:40:15.931Z,7.20
2019-03-05T23:43:00.236Z,7.30
2019-03-05T23:45:44.595Z,7.20
2019-03-05T23:48:40.747Z,7.30
2019-03-05T23:51:25.868Z,7.50
2019-03-05T23:54:10.936Z,7.50
2019-03-05T23:56:56.168Z,7.60
2019-03-05T23:59:49.658Z,7.70
